Thunder radar more information blitzortung!


Radar de pluja more information rain snow radar


Visita la nostra xarxa de llocs de meteo:

Template documentation
and downloads

And another site



No particular awareness of the weather is required.    There are no Weather-warnings

Pagina Historial Weather Underground text

Diari Resum Abril 12, 2016 Unitats:  Mètric    Imperial   Tant
« Previous Dia
SegĂźent Dia »
Diari Setmana Mensual Anual Personalitzada
  Maxima: Minima: Media:
Temperatura: -17.8 °C -12.1 °C -8.6 °C
Punt de rosada: -17.8 °C -15.7 °C -13.8 °C
Humitat: Humidity % 33 % 55 %
Wind Speed: 0 km/h 0 km/h 11.7 km/h
RĂ fegues de vent: 0 km/h - -
Vent:- - South
Pression baro: 0 hPa 34164.7 hPa -
Precipitacions: 0 mm    
Historical Graphs
 
 
Dades de taula per Abril 12, 2016
Temps Temperatura Punt de rosada Pression baro Vent Wind Speed RĂ fegues de vent Humitat Rainfall Rate (Hourly)
-17.8 °C -17.8 °C 0 hPa Calm     Humidity % 0 mm
00:00 -11.5 °C -14 °C 34327.3 hPa West 5.1 km/h 7.7 km/h 74 % 0 mm
00:02 -11 °C -15.3 °C 34327.3 hPa WSW 9 km/h 9 km/h 59 % 0 mm
00:10 -11.4 °C -13.7 °C 34327.3 hPa West 5.1 km/h 10.3 km/h 76 % 0 mm
00:20 -11.5 °C -13.8 °C 34361.1 hPa WSW 5.1 km/h 10.3 km/h 76 % 0 mm
00:30 -11.6 °C -13.8 °C 34361.1 hPa WSW 5.1 km/h 10.3 km/h 76 % 0 mm
00:40 -11.6 °C -13.9 °C 34327.3 hPa WSW 2.6 km/h 5.1 km/h 76 % 0 mm
00:50 -11.6 °C -13.8 °C 34327.3 hPa WSW 5.1 km/h 7.7 km/h 77 % 0 mm
01:00 -11.6 °C -13.6 °C 34327.3 hPa SW 2.6 km/h 7.7 km/h 78 % 0 mm
01:10 -11.6 °C -13.6 °C 34327.3 hPa Calm   5.1 km/h 79 % 0 mm
01:20 -11.6 °C -13.6 °C 34327.3 hPa WSW 2.6 km/h 5.1 km/h 78 % 0 mm
01:30 -11.7 °C -13.6 °C 34327.3 hPa WNW 2.6 km/h 5.1 km/h 79 % 0 mm
01:40 -11.7 °C -13.7 °C 34327.3 hPa Calm   2.6 km/h 78 % 0 mm
01:50 -11.7 °C -13.7 °C 34327.3 hPa Calm   2.6 km/h 78 % 0 mm
02:00 -11.7 °C -13.8 °C 34327.3 hPa WNW 2.6 km/h 5.1 km/h 78 % 0 mm
02:10 -11.8 °C -13.8 °C 34327.3 hPa WNW 2.6 km/h 5.1 km/h 78 % 0 mm
02:20 -11.7 °C -13.6 °C 34327.3 hPa West 2.6 km/h 7.7 km/h 79 % 0 mm
02:30 -11.7 °C -13.6 °C 34327.3 hPa West 2.6 km/h 2.6 km/h 79 % 0 mm
02:40 -11.7 °C -13.7 °C 34327.3 hPa NNE 5.1 km/h 5.1 km/h 79 % 0 mm
02:50 -12 °C -14.1 °C 34327.3 hPa East 7.7 km/h 7.7 km/h 78 % 0 mm
03:00 -12.1 °C -14.1 °C 34327.3 hPa Calm   2.6 km/h 78 % 0 mm
03:10 -12.1 °C -14.3 °C 34327.3 hPa Calm   5.1 km/h 77 % 0 mm
03:20 -12 °C -14.1 °C 34327.3 hPa Calm   5.1 km/h 77 % 0 mm
03:30 -11.9 °C -14.1 °C 34327.3 hPa Calm   5.1 km/h 77 % 0 mm
03:40 -11.8 °C -13.8 °C 34327.3 hPa Calm   5.1 km/h 78 % 0 mm
04:00 -11.4 °C -13.5 °C 34327.3 hPa SW 2.6 km/h 5.1 km/h 78 % 0 mm
04:10 -11.2 °C -13.2 °C 34327.3 hPa SW 2.6 km/h 2.6 km/h 78 % 0 mm
04:20 -10.8 °C -13 °C 34327.3 hPa SE 2.6 km/h 5.1 km/h 77 % 0 mm
04:30 -10.8 °C -12.9 °C 34327.3 hPa Calm   5.1 km/h 77 % 0 mm
04:40 -10.7 °C -13 °C 34327.3 hPa NNE 2.6 km/h 5.1 km/h 76 % 0 mm
04:50 -10.4 °C -12.8 °C 34361.1 hPa NNE 2.6 km/h 5.1 km/h 75 % 0 mm
05:00 -10.3 °C -13 °C 34361.1 hPa NNE 7.7 km/h 7.7 km/h 72 % 0 mm
05:10 -10.2 °C -13 °C 34327.3 hPa NE 5.1 km/h 10.3 km/h 71 % 0 mm
05:20 -9.9 °C -12.9 °C 34327.3 hPa ENE 7.7 km/h 7.7 km/h 70 % 0 mm
05:30 -9.6 °C -12.6 °C 34327.3 hPa East 5.1 km/h 10.3 km/h 70 % 0 mm
05:40 -9.3 °C -12.3 °C 34361.1 hPa East 5.1 km/h 7.7 km/h 70 % 0 mm
05:45 -9.2 °C -12.3 °C 34361.1 hPa East 5.1 km/h 7.7 km/h 70 % 0 mm
10:45 -9.2 °C -12.3 °C 34361.1 hPa ESE 9 km/h 9 km/h 70 % 0 mm
10:50 -9.2 °C -12.3 °C 34293.4 hPa East 9 km/h 12.2 km/h 69 % 0 mm
10:55 -9.2 °C -12.5 °C 34293.4 hPa ESE 15 km/h 15 km/h 68 % 0 mm
11:00 -9.2 °C -12.4 °C 34293.4 hPa ENE 9 km/h 9 km/h 68 % 0 mm
11:05 -9.1 °C -12.4 °C 34327.3 hPa ESE 15 km/h 15 km/h 67 % 0 mm
11:15 -8.8 °C -12.3 °C 34327.3 hPa ESE 20.9 km/h 20.9 km/h 66 % 0 mm
11:20 -8.6 °C -12.3 °C 34327.3 hPa ENE 9 km/h 9 km/h 65 % 0 mm
11:25 -8.5 °C -12.3 °C 34327.3 hPa ENE 9 km/h 9 km/h 64 % 0 mm
11:30 -8.4 °C -12.3 °C 34327.3 hPa ESE 15 km/h 15 km/h 63 % 0 mm
11:35 -8 °C -12.1 °C 34327.3 hPa SSE 6 km/h 6 km/h 62 % 0 mm
11:40 -7.8 °C -12.2 °C 34327.3 hPa East 23.8 km/h 23.8 km/h 60 % 0 mm
11:45 -7.7 °C -12.1 °C 34327.3 hPa SE 9 km/h 9 km/h 60 % 0 mm
11:50 -7.6 °C -12 °C 34327.3 hPa ENE 12.7 km/h 12.7 km/h 60 % 0 mm
11:55 -7.8 °C -12.3 °C 34327.3 hPa ENE 15 km/h 15 km/h 59 % 0 mm
12:00 -7.8 °C -12.3 °C 34327.3 hPa SSW 15 km/h 15 km/h 59 % 0 mm
12:05 -7.8 °C -12.3 °C 34327.3 hPa East 17.9 km/h 17.9 km/h 59 % 0 mm
12:10 -7.7 °C -12.3 °C 34327.3 hPa ESE 15 km/h 15 km/h 59 % 0 mm
12:15 -7.8 °C -12.3 °C 34327.3 hPa NNE 9 km/h 9 km/h 59 % 0 mm
12:20 -7.7 °C -12.4 °C 34327.3 hPa ESE 15 km/h 15 km/h 58 % 0 mm
12:25 -7.7 °C -12.3 °C 34327.3 hPa ESE 15 km/h 15 km/h 58 % 0 mm
12:30 -7.6 °C -12.3 °C 34327.3 hPa East 11.9 km/h 11.9 km/h 58 % 0 mm
12:35 -7.6 °C -12.3 °C 34327.3 hPa ENE 11.9 km/h 11.9 km/h 58 % 0 mm
12:40 -7.8 °C -12.2 °C 34327.3 hPa NNE 15 km/h 15 km/h 60 % 0 mm
12:45 -7.7 °C -12 °C 34327.3 hPa East 15 km/h 15 km/h 61 % 0 mm
12:50 -7.7 °C -12.1 °C 34327.3 hPa ENE 15 km/h 15 km/h 60 % 0 mm
12:55 -7.6 °C -12 °C 34327.3 hPa ENE 15 km/h 15 km/h 60 % 0 mm
13:00 -7.4 °C -12 °C 34327.3 hPa ESE 15 km/h 15 km/h 59 % 0 mm
13:10 -7.4 °C -12 °C 34327.3 hPa East 6.8 km/h 6.8 km/h 59 % 0 mm
13:15 -7.4 °C -12.1 °C 34327.3 hPa NE 20.9 km/h 20.9 km/h 58 % 0 mm
13:20 -7.4 °C -12.2 °C 34327.3 hPa East 17.9 km/h 17.9 km/h 57 % 0 mm
13:25 -7.3 °C -12.2 °C 34327.3 hPa NNE 10.3 km/h 10.3 km/h 57 % 0 mm
13:30 -7.2 °C -12.1 °C 34327.3 hPa ESE 20.9 km/h 20.9 km/h 57 % 0 mm
13:36 -7.3 °C -11.8 °C 34293.4 hPa East 23.8 km/h 23.8 km/h 59 % 0 mm
13:41 -7.3 °C -11.7 °C 34293.4 hPa ENE 20.9 km/h 20.9 km/h 60 % 0 mm
13:46 -7.2 °C -11.8 °C 34293.4 hPa East 20.9 km/h 20.9 km/h 59 % 0 mm
13:51 -7.2 °C -11.8 °C 34293.4 hPa East 20.9 km/h 20.9 km/h 59 % 0 mm
13:56 -7.2 °C -11.9 °C 34293.4 hPa SSW 17.9 km/h 17.9 km/h 58 % 0 mm
14:01 -7.2 °C -11.9 °C 34293.4 hPa ENE 15 km/h 15 km/h 58 % 0 mm
14:06 -7.1 °C -11.8 °C 34256.2 hPa South 15 km/h 15 km/h 58 % 0 mm
14:11 -7.1 °C -11.8 °C 34256.2 hPa ENE 11.9 km/h 11.9 km/h 58 % 0 mm
14:16 -6.8 °C -11.5 °C 34256.2 hPa SSE 15 km/h 15 km/h 58 % 0 mm
14:21 -6.7 °C -11.4 °C 34256.2 hPa ENE 11.9 km/h 11.9 km/h 58 % 0 mm
14:26 -6.5 °C -11.6 °C 34256.2 hPa ESE 11.9 km/h 11.9 km/h 56 % 0 mm
14:31 -6.7 °C -11.8 °C 34256.2 hPa NNE 15 km/h 15 km/h 56 % 0 mm
14:36 -6.7 °C -11.7 °C 34256.2 hPa ESE 16.1 km/h 16.1 km/h 56 % 0 mm
14:41 -6.4 °C -11.5 °C 34256.2 hPa East 17.9 km/h 17.9 km/h 56 % 0 mm
14:46 -6.3 °C -11.5 °C 34256.2 hPa WSW 6 km/h 6 km/h 55 % 0 mm
14:51 -6.2 °C -11.6 °C 34256.2 hPa NE 9 km/h 9 km/h 54 % 0 mm
14:56 -5.8 °C -11.7 °C 34256.2 hPa SW 15 km/h 15 km/h 51 % 0 mm
15:01 -5.6 °C -12 °C 34256.2 hPa SSW 9 km/h 9.3 km/h 48 % 0 mm
15:06 -5.7 °C -12.1 °C 34256.2 hPa WSW 9 km/h 9 km/h 48 % 0 mm
15:11 -5.4 °C -12 °C 34256.2 hPa SW 9.8 km/h 9.8 km/h 47 % 0 mm
15:16 -5.2 °C -12 °C 34256.2 hPa SSE 20.9 km/h 20.9 km/h 46 % 0 mm
15:21 -5.1 °C -12.1 °C 34256.2 hPa SW 25.1 km/h 25.1 km/h 45 % 0 mm
15:31 -5.2 °C -13.2 °C 34256.2 hPa SW 20.9 km/h 20.9 km/h 40 % 0 mm
15:36 -5.3 °C -13 °C 34256.2 hPa WSW 17.9 km/h 17.9 km/h 41 % 0 mm
15:41 -5.3 °C -13 °C 34256.2 hPa WSW 23.8 km/h 23.8 km/h 41 % 0 mm
15:46 -5.3 °C -13 °C 34256.2 hPa SSW 9 km/h 11.6 km/h 41 % 0 mm
15:51 -5.3 °C -13 °C 34256.2 hPa West 32.8 km/h 32.8 km/h 41 % 0 mm
15:56 -5.3 °C -13 °C 34256.2 hPa SW 15 km/h 15 km/h 41 % 0 mm
16:01 -5.3 °C -13 °C 34222.3 hPa SW 22 km/h 22 km/h 41 % 0 mm
16:06 -5.3 °C -13 °C 34222.3 hPa South 11.9 km/h 11.9 km/h 41 % 0 mm
16:11 -5.3 °C -13 °C 34222.3 hPa West 15 km/h 15 km/h 41 % 0 mm
16:16 -5.3 °C -13 °C 34222.3 hPa SW 26.9 km/h 26.9 km/h 41 % 0 mm
16:21 -5.3 °C -13 °C 34222.3 hPa SW 23.8 km/h 23.8 km/h 41 % 0 mm
16:26 -5.3 °C -13 °C 34222.3 hPa South 18.3 km/h 18.3 km/h 41 % 0 mm
16:31 -5.3 °C -13 °C 34198.6 hPa West 26.9 km/h 26.9 km/h 41 % 0 mm
16:41 -5.3 °C -13 °C 34198.6 hPa SSW 15 km/h 15 km/h 41 % 0 mm
16:46 -5.3 °C -13 °C 34222.3 hPa SSW 11.9 km/h 11.9 km/h 41 % 0 mm
16:51 -5.3 °C -13 °C 34222.3 hPa South 29.8 km/h 29.8 km/h 41 % 0 mm
16:56 -5.3 °C -13.8 °C 34222.3 hPa SW 23.8 km/h 23.8 km/h 37 % 0 mm
17:01 -5.3 °C -14.3 °C 34198.6 hPa SSW 20.9 km/h 20.9 km/h 35 % 0 mm
17:06 -5.3 °C -14.3 °C 34198.6 hPa SSW 20.9 km/h 20.9 km/h 35 % 0 mm
17:11 -5.3 °C -14.3 °C 34198.6 hPa SW 20.9 km/h 20.9 km/h 35 % 0 mm
17:16 -5.3 °C -14.3 °C 34198.6 hPa SSW 15 km/h 15 km/h 35 % 0 mm
17:21 -5.3 °C -14.3 °C 34198.6 hPa WSW 26.9 km/h 26.9 km/h 35 % 0 mm
17:26 -5.3 °C -14.3 °C 34198.6 hPa SW 20.9 km/h 20.9 km/h 35 % 0 mm
17:31 -5.3 °C -14.3 °C 34198.6 hPa WSW 29.8 km/h 29.8 km/h 35 % 0 mm
17:36 -5.3 °C -14.3 °C 34198.6 hPa SW 26.9 km/h 26.9 km/h 35 % 0 mm
17:41 -5.3 °C -14.3 °C 34198.6 hPa South 20.3 km/h 20.3 km/h 35 % 0 mm
17:46 -6.1 °C -15.2 °C 34198.6 hPa SSW 23.8 km/h 23.8 km/h 34 % 0 mm
17:51 -6.2 °C -15.6 °C 34198.6 hPa SSW 37.5 km/h 37.5 km/h 33 % 0 mm
17:56 -6.3 °C -15.4 °C 34198.6 hPa SSW 20.9 km/h 20.9 km/h 34 % 0 mm
18:01 -6.3 °C -15.4 °C 34198.6 hPa SSE 23.8 km/h 23.8 km/h 34 % 0 mm
18:06 -6.3 °C -15.7 °C 34198.6 hPa West 23.8 km/h 23.8 km/h 33 % 0 mm
18:11 -6.3 °C -15.7 °C 34198.6 hPa WSW 15 km/h 15 km/h 33 % 0 mm
18:16 -6.4 °C -15.6 °C 34198.6 hPa SW 35.7 km/h 35.7 km/h 34 % 0 mm
18:21 -6.4 °C -15.6 °C 34198.6 hPa SSW 26.9 km/h 26.9 km/h 34 % 0 mm
18:26 -6.4 °C -15.6 °C 34198.6 hPa WSW 35.7 km/h 35.7 km/h 34 % 0 mm
18:31 -6.4 °C -15.6 °C 34198.6 hPa SW 26.9 km/h 26.9 km/h 34 % 0 mm
18:36 -6.4 °C -15.6 °C 34198.6 hPa SW 29.8 km/h 29.8 km/h 34 % 0 mm
18:41 -6.4 °C -15.6 °C 34198.6 hPa SW 26.9 km/h 26.9 km/h 34 % 0 mm
18:46 -6.4 °C -15.6 °C 34198.6 hPa SSW 19.2 km/h 25.4 km/h 34 % 0 mm
18:51 -7 °C -15.2 °C 34198.6 hPa SW 14 km/h 16.6 km/h 38 % 0 mm
18:56 -7.1 °C -15 °C 34198.6 hPa West 15.3 km/h 15.3 km/h 39 % 0 mm
19:01 -7.1 °C -15 °C 34198.6 hPa SW 23.8 km/h 23.8 km/h 39 % 0 mm
19:06 -7.1 °C -15 °C 34198.6 hPa SW 25.4 km/h 25.4 km/h 39 % 0 mm
19:11 -7.1 °C -15 °C 34198.6 hPa SW 11.9 km/h 16.1 km/h 39 % 0 mm
19:15 -10.3 °C -14.7 °C 34256.2 hPa WSW 5.1 km/h 7.7 km/h 59 % 0 mm
19:16 -7.5 °C -15 °C 34198.6 hPa SSW 20.3 km/h 20.3 km/h 41 % 0 mm
19:21 -7.5 °C -15 °C 34198.6 hPa SW 17.9 km/h 17.9 km/h 41 % 0 mm
19:25 -10.4 °C -14.8 °C 34222.3 hPa West 2.6 km/h 5.1 km/h 59 % 0 mm
19:26 -7.5 °C -15 °C 34198.6 hPa SSW 9.3 km/h 9.3 km/h 41 % 0 mm
19:31 -7.8 °C -14.9 °C 34198.6 hPa SSW 20.9 km/h 20.9 km/h 43 % 0 mm
19:35 -10.6 °C -14.9 °C 34256.2 hPa NNW 2.6 km/h 7.7 km/h 59 % 0 mm
19:36 -7.9 °C -14.9 °C 34198.6 hPa SW 15 km/h 15 km/h 43 % 0 mm
19:41 -7.9 °C -14.9 °C 34198.6 hPa WSW 15.6 km/h 15.6 km/h 43 % 0 mm
19:45 -10.8 °C -15.1 °C 34256.2 hPa NNE 2.6 km/h 5.1 km/h 59 % 0 mm
19:46 -7.9 °C -14.9 °C 34164.7 hPa WSW 15.6 km/h 15.6 km/h 43 % 0 mm
19:51 -7.9 °C -14.9 °C 34164.7 hPa WNW 15 km/h 15 km/h 43 % 0 mm
19:55 -10.9 °C -15.1 °C 34256.2 hPa Calm   5.1 km/h 60 % 0 mm
19:56 -7.9 °C -14.9 °C 34164.7 hPa WSW 20.9 km/h 20.9 km/h 43 % 0 mm
20:05 -10.9 °C -15.1 °C 34222.3 hPa Calm   7.7 km/h 60 % 0 mm
20:06 -7.9 °C -14.9 °C 34198.6 hPa SW 27.7 km/h 27.7 km/h 43 % 0 mm
20:11 -7.9 °C -14.9 °C 34198.6 hPa WSW 11.9 km/h 11.9 km/h 43 % 0 mm
20:15 -10.9 °C -15.1 °C 34222.3 hPa Calm   2.6 km/h 60 % 0 mm
20:16 -7.9 °C -14.9 °C 34198.6 hPa SW 15 km/h 15 km/h 43 % 0 mm
20:21 -7.9 °C -14.9 °C 34198.6 hPa SSW 15.3 km/h 15.3 km/h 43 % 0 mm
20:25 -11 °C -15.2 °C 34256.2 hPa WSW 5.1 km/h 5.1 km/h 60 % 0 mm
20:26 -7.9 °C -14.9 °C 34198.6 hPa SW 6 km/h 7.6 km/h 43 % 0 mm
20:31 -7.9 °C -14.9 °C 34198.6 hPa SW 9 km/h 9 km/h 43 % 0 mm
20:35 -11.2 °C -15.3 °C 34256.2 hPa WSW 5.1 km/h 7.7 km/h 61 % 0 mm
20:36 -7.9 °C -14.9 °C 34198.6 hPa SSW 9 km/h 9.3 km/h 43 % 0 mm
20:41 -7.9 °C -14.9 °C 34198.6 hPa SW 17.9 km/h 17.9 km/h 43 % 0 mm
20:45 -11.2 °C -15.3 °C 34256.2 hPa SW 2.6 km/h 7.7 km/h 61 % 0 mm
20:46 -7.9 °C -14.9 °C 34198.6 hPa SSW 9 km/h 9 km/h 43 % 0 mm
20:51 -7.9 °C -14.9 °C 34198.6 hPa SSW 11.9 km/h 11.9 km/h 43 % 0 mm
20:55 -11.2 °C -15.3 °C 34256.2 hPa SW 5.1 km/h 7.7 km/h 61 % 0 mm
20:56 -7.9 °C -14.9 °C 34198.6 hPa West 15 km/h 15 km/h 43 % 0 mm
21:01 -7.9 °C -14.9 °C 34222.3 hPa SSW 17.9 km/h 17.9 km/h 43 % 0 mm
21:05 -11.2 °C -15.3 °C 34256.2 hPa SW 5.1 km/h 5.1 km/h 61 % 0 mm
21:06 -7.9 °C -14.9 °C 34222.3 hPa West 11.9 km/h 11.9 km/h 43 % 0 mm
21:11 -7.9 °C -14.9 °C 34222.3 hPa SW 9 km/h 9 km/h 43 % 0 mm
21:16 -9.5 °C -14.5 °C 34222.3 hPa WSW 15 km/h 15 km/h 55 % 0 mm
21:21 -9.5 °C -14.5 °C 34222.3 hPa SW 9 km/h 9 km/h 55 % 0 mm
21:25 -11.1 °C -15.1 °C 34256.2 hPa Calm   2.6 km/h 61 % 0 mm
21:26 -9.5 °C -14.5 °C 34222.3 hPa WSW 9 km/h 9 km/h 55 % 0 mm
21:31 -9.5 °C -14.5 °C 34222.3 hPa WSW 9 km/h 9 km/h 55 % 0 mm
21:35 -11.1 °C -15.1 °C 34256.2 hPa Calm   2.6 km/h 61 % 0 mm
21:36 -9.7 °C -14.5 °C 34222.3 hPa SW 15 km/h 15 km/h 56 % 0 mm
21:41 -9.7 °C -14.5 °C 34222.3 hPa SW 15 km/h 15 km/h 56 % 0 mm
21:45 -11.1 °C -15.1 °C 34256.2 hPa WSW 2.6 km/h 2.6 km/h 61 % 0 mm
21:46 -9.8 °C -14.6 °C 34256.2 hPa WSW 9 km/h 9 km/h 56 % 0 mm
21:51 -9.8 °C -14.6 °C 34256.2 hPa SW 9 km/h 9 km/h 56 % 0 mm
21:55 -11.1 °C -15.1 °C 34256.2 hPa WSW 5.1 km/h 7.7 km/h 61 % 0 mm
21:56 -9.8 °C -14.7 °C 34256.2 hPa SW 9 km/h 9 km/h 56 % 0 mm
22:01 -9.8 °C -14.7 °C 34256.2 hPa WSW 6 km/h 6 km/h 56 % 0 mm
22:05 -11.1 °C -15.1 °C 34222.3 hPa SW 5.1 km/h 7.7 km/h 61 % 0 mm
22:06 -9.9 °C -14.7 °C 34256.2 hPa SW 3.7 km/h 3.7 km/h 56 % 0 mm
22:11 -9.9 °C -14.8 °C 34256.2 hPa West 6.3 km/h 6.3 km/h 56 % 0 mm
22:15 -11.1 °C -15.1 °C 34222.3 hPa SW 2.6 km/h 5.1 km/h 61 % 0 mm
22:16 -9.9 °C -14.8 °C 34256.2 hPa WSW 7.6 km/h 7.6 km/h 56 % 0 mm
22:21 -10 °C -14.8 °C 34256.2 hPa SW 6 km/h 6 km/h 56 % 0 mm
22:25 -11.1 °C -15.1 °C 34222.3 hPa SW 2.6 km/h 5.1 km/h 61 % 0 mm
22:31 -10 °C -14.8 °C 34256.2 hPa SW 6 km/h 6 km/h 56 % 0 mm
22:35 -11.1 °C -15.1 °C 34222.3 hPa Calm     61 % 0 mm
22:36 -10 °C -14.8 °C 34256.2 hPa SW 3.1 km/h 3.1 km/h 56 % 0 mm
22:41 -10.1 °C -14.8 °C 34256.2 hPa SW 3.1 km/h 3.1 km/h 57 % 0 mm
22:45 -11.1 °C -15.1 °C 34222.3 hPa Calm     61 % 0 mm
22:46 -10.1 °C -14.8 °C 34256.2 hPa West 7.6 km/h 7.6 km/h 57 % 0 mm
22:51 -10.1 °C -14.8 °C 34256.2 hPa WNW 6.8 km/h 7.6 km/h 57 % 0 mm
22:55 -11.1 °C -15.1 °C 34222.3 hPa South 2.6 km/h 5.1 km/h 61 % 0 mm
22:56 -10.1 °C -14.6 °C 34256.2 hPa West 6 km/h 6 km/h 58 % 0 mm
23:01 -10.2 °C -14.7 °C 34256.2 hPa West 9 km/h 9 km/h 58 % 0 mm
23:05 -11.4 °C -15.3 °C 34222.3 hPa NW 2.6 km/h 5.1 km/h 62 % 0 mm
23:06 -10.2 °C -14.6 °C 34256.2 hPa WSW 11.9 km/h 11.9 km/h 59 % 0 mm
23:11 -10.2 °C -14.6 °C 34256.2 hPa WSW 9 km/h 9 km/h 59 % 0 mm
23:16 -10.2 °C -14.6 °C 34256.2 hPa SW 6 km/h 6.3 km/h 59 % 0 mm
23:25 -11.6 °C -15.4 °C 34198.6 hPa WSW 5.1 km/h 7.7 km/h 62 % 0 mm
23:26 -10.2 °C -14.6 °C 34256.2 hPa SW 6.3 km/h 6.3 km/h 59 % 0 mm
23:31 -10.2 °C -14.6 °C 34256.2 hPa SW 6.3 km/h 6.3 km/h 59 % 0 mm
23:35 -11.6 °C -15.4 °C 34198.6 hPa WSW 2.6 km/h 5.1 km/h 62 % 0 mm
23:36 -10.2 °C -14.6 °C 34256.2 hPa SW 6.3 km/h 6.3 km/h 59 % 0 mm
23:41 -10.2 °C -14.6 °C 34256.2 hPa SW 6.3 km/h 6.3 km/h 59 % 0 mm
23:45 -11.5 °C -15.3 °C 34198.6 hPa Calm   5.1 km/h 63 % 0 mm
23:46 -10.2 °C -14.6 °C 34256.2 hPa SW 6.3 km/h 6.3 km/h 59 % 0 mm
23:51 -10.4 °C -14.8 °C 34256.2 hPa SW 6.3 km/h 6.3 km/h 59 % 0 mm
23:55 -11.6 °C -15.2 °C 34198.6 hPa SSW 2.6 km/h 5.1 km/h 64 % 0 mm
23:56 -10.4 °C -14.8 °C 34256.2 hPa SW 6.3 km/h 6.3 km/h 59 % 0 mm
Meteo Sesrovires
Elogis d' Weather Underground - 3.75 mb

Guio original per  Jim McMurry - jmcmurry@mwt.net Adaptat per a la plantilla per  Wim van der Kuil - Leuven-Template.eu

Trobareu la nostra informacio del temps tambe a:

Weather Underground

AWEKAS